sensor_id;sensor_type;location;lat;lon;timestamp;P1;durP1;ratioP1;P2;durP2;ratioP2
69594;SDS011;56800;52.142;5.364;2023-06-22T00:01:18;11.23;;;6.57;;
69594;SDS011;56800;52.142;5.364;2023-06-22T00:03:46;9.35;;;6.10;;
69594;SDS011;56800;52.142;5.364;2023-06-22T00:06:13;10.93;;;6.28;;
69594;SDS011;56800;52.142;5.364;2023-06-22T00:08:40;12.35;;;6.40;;
69594;SDS011;56800;52.142;5.364;2023-06-22T00:11:07;10.75;;;5.68;;
69594;SDS011;56800;52.142;5.364;2023-06-22T00:13:34;10.53;;;6.20;;
69594;SDS011;56800;52.142;5.364;2023-06-22T00:16:01;10.88;;;6.50;;
69594;SDS011;56800;52.142;5.364;2023-06-22T00:18:27;11.63;;;7.15;;
69594;SDS011;56800;52.142;5.364;2023-06-22T00:20:56;11.48;;;6.38;;
69594;SDS011;56800;52.142;5.364;2023-06-22T00:23:26;9.50;;;6.38;;
69594;SDS011;56800;52.142;5.364;2023-06-22T00:25:53;10.10;;;6.30;;
69594;SDS011;56800;52.142;5.364;2023-06-22T00:28:20;12.07;;;5.53;;
69594;SDS011;56800;52.142;5.364;2023-06-22T00:30:48;9.00;;;6.10;;
69594;SDS011;56800;52.142;5.364;2023-06-22T00:33:15;9.93;;;6.35;;
69594;SDS011;56800;52.142;5.364;2023-06-22T00:35:43;9.85;;;5.90;;
69594;SDS011;56800;52.142;5.364;2023-06-22T00:38:10;7.40;;;4.87;;
69594;SDS011;56800;52.142;5.364;2023-06-22T00:40:38;8.68;;;5.15;;
69594;SDS011;56800;52.142;5.364;2023-06-22T00:43:05;11.35;;;6.25;;
69594;SDS011;56800;52.142;5.364;2023-06-22T00:45:32;8.90;;;5.88;;
69594;SDS011;56800;52.142;5.364;2023-06-22T00:47:59;11.27;;;5.80;;
69594;SDS011;56800;52.142;5.364;2023-06-22T00:50:28;10.43;;;6.67;;
69594;SDS011;56800;52.142;5.364;2023-06-22T00:53:01;12.32;;;6.25;;
69594;SDS011;56800;52.142;5.364;2023-06-22T00:55:38;11.93;;;6.68;;
69594;SDS011;56800;52.142;5.364;2023-06-22T00:58:09;10.73;;;5.55;;
69594;SDS011;56800;52.142;5.364;2023-06-22T01:00:37;9.40;;;5.75;;
69594;SDS011;56800;52.142;5.364;2023-06-22T01:03:09;11.80;;;6.43;;
69594;SDS011;56800;52.142;5.364;2023-06-22T01:05:37;9.15;;;5.70;;
69594;SDS011;56800;52.142;5.364;2023-06-22T01:11:09;10.38;;;6.43;;
69594;SDS011;56800;52.142;5.364;2023-06-22T01:13:44;13.23;;;7.05;;
69594;SDS011;56800;52.142;5.364;2023-06-22T01:16:20;12.83;;;7.23;;
69594;SDS011;56800;52.142;5.364;2023-06-22T01:18:50;12.43;;;6.95;;
69594;SDS011;56800;52.142;5.364;2023-06-22T01:21:21;12.40;;;7.53;;
69594;SDS011;56800;52.142;5.364;2023-06-22T01:23:56;12.68;;;7.38;;
69594;SDS011;56800;52.142;5.364;2023-06-22T01:26:44;11.50;;;6.93;;
69594;SDS011;56800;52.142;5.364;2023-06-22T01:29:23;11.07;;;6.90;;
69594;SDS011;56800;52.142;5.364;2023-06-22T01:31:51;11.00;;;6.85;;
69594;SDS011;56800;52.142;5.364;2023-06-22T01:34:19;11.13;;;6.38;;
69594;SDS011;56800;52.142;5.364;2023-06-22T01:36:47;9.57;;;6.25;;
69594;SDS011;56800;52.142;5.364;2023-06-22T01:39:15;8.50;;;6.30;;
69594;SDS011;56800;52.142;5.364;2023-06-22T01:41:43;9.93;;;6.07;;
69594;SDS011;56800;52.142;5.364;2023-06-22T01:44:12;8.70;;;5.60;;
69594;SDS011;56800;52.142;5.364;2023-06-22T01:46:39;10.05;;;6.90;;
69594;SDS011;56800;52.142;5.364;2023-06-22T01:49:07;11.02;;;6.25;;
69594;SDS011;56800;52.142;5.364;2023-06-22T01:51:34;11.95;;;6.20;;
69594;SDS011;56800;52.142;5.364;2023-06-22T01:54:01;10.50;;;6.30;;
69594;SDS011;56800;52.142;5.364;2023-06-22T01:56:28;10.07;;;5.60;;
69594;SDS011;56800;52.142;5.364;2023-06-22T01:59:00;10.02;;;6.05;;
69594;SDS011;56800;52.142;5.364;2023-06-22T02:01:43;9.10;;;5.82;;
69594;SDS011;56800;52.142;5.364;2023-06-22T02:04:24;9.13;;;5.95;;
69594;SDS011;56800;52.142;5.364;2023-06-22T02:07:00;10.90;;;5.57;;
69594;SDS011;56800;52.142;5.364;2023-06-22T02:09:30;10.23;;;5.70;;
69594;SDS011;56800;52.142;5.364;2023-06-22T02:11:58;8.20;;;6.05;;
69594;SDS011;56800;52.142;5.364;2023-06-22T02:14:27;10.60;;;5.68;;
69594;SDS011;56800;52.142;5.364;2023-06-22T02:16:55;8.93;;;6.15;;
69594;SDS011;56800;52.142;5.364;2023-06-22T02:19:26;10.83;;;6.03;;
69594;SDS011;56800;52.142;5.364;2023-06-22T02:21:53;8.68;;;5.82;;
69594;SDS011;56800;52.142;5.364;2023-06-22T02:24:20;7.55;;;5.40;;
69594;SDS011;56800;52.142;5.364;2023-06-22T02:26:49;10.75;;;5.57;;
69594;SDS011;56800;52.142;5.364;2023-06-22T02:29:16;8.73;;;5.05;;
69594;SDS011;56800;52.142;5.364;2023-06-22T02:31:43;8.37;;;4.97;;
69594;SDS011;56800;52.142;5.364;2023-06-22T02:34:10;10.82;;;5.25;;
69594;SDS011;56800;52.142;5.364;2023-06-22T02:36:45;10.95;;;5.13;;
69594;SDS011;56800;52.142;5.364;2023-06-22T02:39:20;11.30;;;6.55;;
69594;SDS011;56800;52.142;5.364;2023-06-22T02:41:49;11.57;;;7.32;;
69594;SDS011;56800;52.142;5.364;2023-06-22T02:44:17;11.53;;;7.43;;
69594;SDS011;56800;52.142;5.364;2023-06-22T02:46:44;10.57;;;6.38;;
69594;SDS011;56800;52.142;5.364;2023-06-22T02:49:11;11.25;;;6.32;;
69594;SDS011;56800;52.142;5.364;2023-06-22T02:51:38;10.13;;;6.38;;
69594;SDS011;56800;52.142;5.364;2023-06-22T02:54:07;7.88;;;6.10;;
69594;SDS011;56800;52.142;5.364;2023-06-22T02:56:34;10.23;;;6.33;;
69594;SDS011;56800;52.142;5.364;2023-06-22T02:59:02;11.90;;;6.30;;
69594;SDS011;56800;52.142;5.364;2023-06-22T03:01:29;11.65;;;6.70;;
69594;SDS011;56800;52.142;5.364;2023-06-22T03:03:56;8.68;;;5.82;;
69594;SDS011;56800;52.142;5.364;2023-06-22T03:06:23;11.05;;;6.13;;
69594;SDS011;56800;52.142;5.364;2023-06-22T03:08:58;10.60;;;6.43;;
69594;SDS011;56800;52.142;5.364;2023-06-22T03:11:27;10.70;;;6.63;;
69594;SDS011;56800;52.142;5.364;2023-06-22T03:13:53;10.50;;;6.50;;
69594;SDS011;56800;52.142;5.364;2023-06-22T03:16:20;9.65;;;6.45;;
69594;SDS011;56800;52.142;5.364;2023-06-22T03:18:47;9.48;;;6.22;;
69594;SDS011;56800;52.142;5.364;2023-06-22T03:21:13;10.40;;;6.10;;
69594;SDS011;56800;52.142;5.364;2023-06-22T03:23:41;11.65;;;6.78;;
69594;SDS011;56800;52.142;5.364;2023-06-22T03:26:09;10.23;;;6.50;;
69594;SDS011;56800;52.142;5.364;2023-06-22T03:28:37;10.88;;;6.60;;
69594;SDS011;56800;52.142;5.364;2023-06-22T03:31:04;11.98;;;6.68;;
69594;SDS011;56800;52.142;5.364;2023-06-22T03:33:32;10.77;;;6.87;;
69594;SDS011;56800;52.142;5.364;2023-06-22T03:35:59;9.85;;;6.50;;
69594;SDS011;56800;52.142;5.364;2023-06-22T03:38:26;14.13;;;6.63;;
69594;SDS011;56800;52.142;5.364;2023-06-22T03:40:53;10.13;;;6.43;;
69594;SDS011;56800;52.142;5.364;2023-06-22T03:43:20;10.10;;;6.53;;
69594;SDS011;56800;52.142;5.364;2023-06-22T03:45:46;10.60;;;7.27;;
69594;SDS011;56800;52.142;5.364;2023-06-22T03:48:13;11.50;;;7.68;;
69594;SDS011;56800;52.142;5.364;2023-06-22T03:50:40;11.93;;;7.55;;
69594;SDS011;56800;52.142;5.364;2023-06-22T03:53:07;10.43;;;8.00;;
69594;SDS011;56800;52.142;5.364;2023-06-22T03:55:33;11.77;;;8.45;;
69594;SDS011;56800;52.142;5.364;2023-06-22T03:58:01;11.47;;;8.27;;
69594;SDS011;56800;52.142;5.364;2023-06-22T04:00:32;11.05;;;6.95;;
69594;SDS011;56800;52.142;5.364;2023-06-22T04:02:58;9.77;;;7.03;;
69594;SDS011;56800;52.142;5.364;2023-06-22T04:05:25;11.32;;;7.65;;
69594;SDS011;56800;52.142;5.364;2023-06-22T04:07:52;12.82;;;8.32;;
69594;SDS011;56800;52.142;5.364;2023-06-22T04:10:19;11.07;;;8.10;;
69594;SDS011;56800;52.142;5.364;2023-06-22T04:12:45;11.93;;;7.03;;
69594;SDS011;56800;52.142;5.364;2023-06-22T04:15:12;14.82;;;9.10;;
69594;SDS011;56800;52.142;5.364;2023-06-22T04:17:39;14.55;;;9.32;;
69594;SDS011;56800;52.142;5.364;2023-06-22T04:20:06;12.90;;;8.85;;
69594;SDS011;56800;52.142;5.364;2023-06-22T04:22:34;12.07;;;8.33;;
69594;SDS011;56800;52.142;5.364;2023-06-22T04:25:00;13.60;;;8.63;;
69594;SDS011;56800;52.142;5.364;2023-06-22T04:27:27;13.77;;;9.10;;
69594;SDS011;56800;52.142;5.364;2023-06-22T04:29:54;17.08;;;9.18;;
69594;SDS011;56800;52.142;5.364;2023-06-22T04:32:20;12.20;;;8.77;;
69594;SDS011;56800;52.142;5.364;2023-06-22T04:34:47;17.40;;;10.10;;
69594;SDS011;56800;52.142;5.364;2023-06-22T04:37:14;14.52;;;9.93;;
69594;SDS011;56800;52.142;5.364;2023-06-22T04:39:42;14.90;;;10.35;;
69594;SDS011;56800;52.142;5.364;2023-06-22T04:42:09;13.02;;;9.30;;
69594;SDS011;56800;52.142;5.364;2023-06-22T04:44:36;14.88;;;10.07;;
69594;SDS011;56800;52.142;5.364;2023-06-22T04:47:03;14.17;;;9.40;;
69594;SDS011;56800;52.142;5.364;2023-06-22T04:49:35;17.58;;;11.10;;
69594;SDS011;56800;52.142;5.364;2023-06-22T04:52:07;15.88;;;10.27;;
69594;SDS011;56800;52.142;5.364;2023-06-22T04:54:35;17.58;;;10.77;;
69594;SDS011;56800;52.142;5.364;2023-06-22T04:57:03;18.23;;;11.27;;
69594;SDS011;56800;52.142;5.364;2023-06-22T04:59:31;16.40;;;10.10;;
69594;SDS011;56800;52.142;5.364;2023-06-22T05:01:58;14.85;;;11.27;;
69594;SDS011;56800;52.142;5.364;2023-06-22T05:04:27;15.70;;;11.52;;
69594;SDS011;56800;52.142;5.364;2023-06-22T05:06:54;14.45;;;10.55;;
69594;SDS011;56800;52.142;5.364;2023-06-22T05:09:21;15.48;;;10.25;;
69594;SDS011;56800;52.142;5.364;2023-06-22T05:11:48;19.80;;;11.33;;
69594;SDS011;56800;52.142;5.364;2023-06-22T05:14:15;18.20;;;11.15;;
69594;SDS011;56800;52.142;5.364;2023-06-22T05:16:42;16.60;;;11.18;;
69594;SDS011;56800;52.142;5.364;2023-06-22T05:19:09;15.77;;;10.93;;
69594;SDS011;56800;52.142;5.364;2023-06-22T05:21:36;15.20;;;11.05;;
69594;SDS011;56800;52.142;5.364;2023-06-22T05:24:03;15.10;;;10.60;;
69594;SDS011;56800;52.142;5.364;2023-06-22T05:26:31;15.63;;;11.20;;
69594;SDS011;56800;52.142;5.364;2023-06-22T05:29:01;15.23;;;11.25;;
69594;SDS011;56800;52.142;5.364;2023-06-22T05:31:29;16.20;;;11.30;;
69594;SDS011;56800;52.142;5.364;2023-06-22T05:33:56;17.30;;;11.68;;
69594;SDS011;56800;52.142;5.364;2023-06-22T05:36:23;21.97;;;11.93;;
69594;SDS011;56800;52.142;5.364;2023-06-22T05:38:52;16.42;;;12.15;;
69594;SDS011;56800;52.142;5.364;2023-06-22T05:41:19;22.15;;;13.68;;
69594;SDS011;56800;52.142;5.364;2023-06-22T05:43:45;17.70;;;12.73;;
69594;SDS011;56800;52.142;5.364;2023-06-22T05:46:12;15.80;;;10.32;;
69594;SDS011;56800;52.142;5.364;2023-06-22T05:48:39;15.27;;;9.60;;
69594;SDS011;56800;52.142;5.364;2023-06-22T05:51:06;15.07;;;9.88;;
69594;SDS011;56800;52.142;5.364;2023-06-22T05:53:33;13.95;;;10.10;;
69594;SDS011;56800;52.142;5.364;2023-06-22T05:55:59;17.30;;;10.77;;
69594;SDS011;56800;52.142;5.364;2023-06-22T05:58:26;17.38;;;10.93;;
69594;SDS011;56800;52.142;5.364;2023-06-22T06:00:53;14.73;;;10.17;;
69594;SDS011;56800;52.142;5.364;2023-06-22T06:03:19;14.23;;;10.80;;
69594;SDS011;56800;52.142;5.364;2023-06-22T06:05:46;16.00;;;9.75;;
69594;SDS011;56800;52.142;5.364;2023-06-22T06:08:13;15.13;;;8.95;;
69594;SDS011;56800;52.142;5.364;2023-06-22T06:10:40;15.70;;;9.68;;
69594;SDS011;56800;52.142;5.364;2023-06-22T06:13:07;16.70;;;10.20;;
69594;SDS011;56800;52.142;5.364;2023-06-22T06:15:34;19.92;;;13.80;;
69594;SDS011;56800;52.142;5.364;2023-06-22T06:18:01;16.23;;;11.35;;
69594;SDS011;56800;52.142;5.364;2023-06-22T06:20:32;20.52;;;14.55;;
69594;SDS011;56800;52.142;5.364;2023-06-22T06:23:08;26.60;;;14.70;;
69594;SDS011;56800;52.142;5.364;2023-06-22T06:25:51;20.13;;;13.03;;
69594;SDS011;56800;52.142;5.364;2023-06-22T06:29:00;27.85;;;16.80;;
69594;SDS011;56800;52.142;5.364;2023-06-22T06:31:28;22.30;;;16.80;;
69594;SDS011;56800;52.142;5.364;2023-06-22T06:34:08;22.65;;;15.95;;
69594;SDS011;56800;52.142;5.364;2023-06-22T06:36:35;24.58;;;14.98;;
69594;SDS011;56800;52.142;5.364;2023-06-22T06:39:02;22.33;;;13.73;;
69594;SDS011;56800;52.142;5.364;2023-06-22T06:41:29;20.55;;;13.48;;
69594;SDS011;56800;52.142;5.364;2023-06-22T06:43:56;18.75;;;13.02;;
69594;SDS011;56800;52.142;5.364;2023-06-22T06:46:23;27.42;;;17.85;;
69594;SDS011;56800;52.142;5.364;2023-06-22T06:48:50;25.30;;;18.27;;
69594;SDS011;56800;52.142;5.364;2023-06-22T06:51:16;24.10;;;17.00;;
69594;SDS011;56800;52.142;5.364;2023-06-22T06:53:43;21.75;;;14.45;;
69594;SDS011;56800;52.142;5.364;2023-06-22T06:56:10;19.67;;;14.20;;
69594;SDS011;56800;52.142;5.364;2023-06-22T06:58:40;20.02;;;14.00;;
69594;SDS011;56800;52.142;5.364;2023-06-22T07:01:08;24.08;;;14.73;;
69594;SDS011;56800;52.142;5.364;2023-06-22T07:03:35;20.00;;;13.53;;
69594;SDS011;56800;52.142;5.364;2023-06-22T07:06:02;21.08;;;14.20;;
69594;SDS011;56800;52.142;5.364;2023-06-22T07:08:29;20.00;;;13.77;;
69594;SDS011;56800;52.142;5.364;2023-06-22T07:10:56;20.60;;;11.80;;
69594;SDS011;56800;52.142;5.364;2023-06-22T07:13:23;17.65;;;13.32;;
69594;SDS011;56800;52.142;5.364;2023-06-22T07:15:50;18.37;;;13.57;;
69594;SDS011;56800;52.142;5.364;2023-06-22T07:18:16;18.35;;;12.85;;
69594;SDS011;56800;52.142;5.364;2023-06-22T07:20:43;19.23;;;13.77;;
69594;SDS011;56800;52.142;5.364;2023-06-22T07:23:10;22.88;;;16.10;;
69594;SDS011;56800;52.142;5.364;2023-06-22T07:25:37;23.52;;;16.33;;
69594;SDS011;56800;52.142;5.364;2023-06-22T07:28:05;21.33;;;13.97;;
69594;SDS011;56800;52.142;5.364;2023-06-22T07:30:33;20.23;;;14.18;;
69594;SDS011;56800;52.142;5.364;2023-06-22T07:33:01;20.13;;;13.43;;
69594;SDS011;56800;52.142;5.364;2023-06-22T07:35:34;17.63;;;12.68;;
69594;SDS011;56800;52.142;5.364;2023-06-22T07:38:01;21.42;;;13.48;;
69594;SDS011;56800;52.142;5.364;2023-06-22T07:40:31;18.13;;;12.07;;
69594;SDS011;56800;52.142;5.364;2023-06-22T07:42:58;20.73;;;13.15;;
69594;SDS011;56800;52.142;5.364;2023-06-22T07:45:25;19.80;;;12.95;;
69594;SDS011;56800;52.142;5.364;2023-06-22T07:47:52;16.60;;;12.98;;
69594;SDS011;56800;52.142;5.364;2023-06-22T07:50:19;17.40;;;12.82;;
69594;SDS011;56800;52.142;5.364;2023-06-22T07:52:46;19.27;;;11.27;;
69594;SDS011;56800;52.142;5.364;2023-06-22T07:55:14;17.15;;;11.13;;
69594;SDS011;56800;52.142;5.364;2023-06-22T07:57:40;17.58;;;10.93;;
69594;SDS011;56800;52.142;5.364;2023-06-22T08:00:08;19.52;;;11.23;;
69594;SDS011;56800;52.142;5.364;2023-06-22T08:02:42;16.40;;;10.52;;
69594;SDS011;56800;52.142;5.364;2023-06-22T08:05:11;11.87;;;8.73;;
69594;SDS011;56800;52.142;5.364;2023-06-22T08:07:58;12.98;;;9.80;;
69594;SDS011;56800;52.142;5.364;2023-06-22T08:10:25;18.83;;;10.82;;
69594;SDS011;56800;52.142;5.364;2023-06-22T08:12:52;14.90;;;9.60;;
69594;SDS011;56800;52.142;5.364;2023-06-22T08:15:19;16.83;;;10.10;;
69594;SDS011;56800;52.142;5.364;2023-06-22T08:17:45;15.27;;;10.13;;
69594;SDS011;56800;52.142;5.364;2023-06-22T08:20:12;18.35;;;10.88;;
69594;SDS011;56800;52.142;5.364;2023-06-22T08:22:40;15.63;;;10.00;;
69594;SDS011;56800;52.142;5.364;2023-06-22T08:25:07;12.35;;;8.63;;
69594;SDS011;56800;52.142;5.364;2023-06-22T08:27:35;13.45;;;9.52;;
69594;SDS011;56800;52.142;5.364;2023-06-22T08:30:02;13.07;;;8.37;;
69594;SDS011;56800;52.142;5.364;2023-06-22T08:32:30;10.90;;;7.45;;
69594;SDS011;56800;52.142;5.364;2023-06-22T08:34:59;16.17;;;10.77;;
69594;SDS011;56800;52.142;5.364;2023-06-22T08:37:26;12.50;;;9.80;;
69594;SDS011;56800;52.142;5.364;2023-06-22T08:40:02;13.68;;;8.38;;
69594;SDS011;56800;52.142;5.364;2023-06-22T08:42:31;11.37;;;6.23;;
69594;SDS011;56800;52.142;5.364;2023-06-22T08:44:58;11.25;;;7.97;;
69594;SDS011;56800;52.142;5.364;2023-06-22T08:47:25;13.15;;;9.50;;
69594;SDS011;56800;52.142;5.364;2023-06-22T08:49:53;12.00;;;8.18;;
69594;SDS011;56800;52.142;5.364;2023-06-22T08:52:20;13.02;;;7.57;;
69594;SDS011;56800;52.142;5.364;2023-06-22T08:54:49;11.33;;;6.80;;
69594;SDS011;56800;52.142;5.364;2023-06-22T08:57:16;11.65;;;6.60;;
69594;SDS011;56800;52.142;5.364;2023-06-22T08:59:43;10.30;;;6.63;;
69594;SDS011;56800;52.142;5.364;2023-06-22T09:02:10;10.68;;;5.70;;
69594;SDS011;56800;52.142;5.364;2023-06-22T09:04:37;7.43;;;4.97;;
69594;SDS011;56800;52.142;5.364;2023-06-22T09:07:04;8.53;;;5.47;;
69594;SDS011;56800;52.142;5.364;2023-06-22T09:09:31;8.43;;;6.07;;
69594;SDS011;56800;52.142;5.364;2023-06-22T09:11:58;7.57;;;5.80;;
69594;SDS011;56800;52.142;5.364;2023-06-22T09:14:24;7.22;;;4.85;;
69594;SDS011;56800;52.142;5.364;2023-06-22T09:16:51;8.07;;;5.45;;
69594;SDS011;56800;52.142;5.364;2023-06-22T09:19:18;7.83;;;5.10;;
69594;SDS011;56800;52.142;5.364;2023-06-22T09:21:44;9.05;;;5.03;;
69594;SDS011;56800;52.142;5.364;2023-06-22T09:24:11;8.88;;;4.85;;
69594;SDS011;56800;52.142;5.364;2023-06-22T09:26:38;9.25;;;3.90;;
69594;SDS011;56800;52.142;5.364;2023-06-22T09:29:05;6.20;;;4.10;;
69594;SDS011;56800;52.142;5.364;2023-06-22T09:31:32;8.03;;;4.27;;
69594;SDS011;56800;52.142;5.364;2023-06-22T09:33:59;6.97;;;4.20;;
69594;SDS011;56800;52.142;5.364;2023-06-22T09:36:25;6.75;;;4.20;;
69594;SDS011;56800;52.142;5.364;2023-06-22T09:38:52;7.25;;;3.92;;
69594;SDS011;56800;52.142;5.364;2023-06-22T09:41:23;8.57;;;5.45;;
69594;SDS011;56800;52.142;5.364;2023-06-22T09:43:49;8.00;;;4.50;;
69594;SDS011;56800;52.142;5.364;2023-06-22T09:46:18;8.18;;;4.70;;
69594;SDS011;56800;52.142;5.364;2023-06-22T09:48:48;9.05;;;4.63;;
69594;SDS011;56800;52.142;5.364;2023-06-22T09:51:14;5.63;;;4.03;;
69594;SDS011;56800;52.142;5.364;2023-06-22T09:53:43;6.63;;;4.40;;
69594;SDS011;56800;52.142;5.364;2023-06-22T09:56:10;4.93;;;3.40;;
69594;SDS011;56800;52.142;5.364;2023-06-22T09:58:44;7.85;;;4.15;;
69594;SDS011;56800;52.142;5.364;2023-06-22T10:01:12;6.07;;;4.63;;
69594;SDS011;56800;52.142;5.364;2023-06-22T10:03:43;7.57;;;4.53;;
69594;SDS011;56800;52.142;5.364;2023-06-22T10:06:10;8.73;;;4.85;;
69594;SDS011;56800;52.142;5.364;2023-06-22T10:08:37;7.70;;;4.43;;
69594;SDS011;56800;52.142;5.364;2023-06-22T10:11:04;9.52;;;4.22;;
69594;SDS011;56800;52.142;5.364;2023-06-22T10:13:31;7.45;;;4.65;;
69594;SDS011;56800;52.142;5.364;2023-06-22T10:15:58;5.30;;;4.15;;
69594;SDS011;56800;52.142;5.364;2023-06-22T10:18:24;8.77;;;4.80;;
69594;SDS011;56800;52.142;5.364;2023-06-22T10:20:51;5.67;;;3.90;;
69594;SDS011;56800;52.142;5.364;2023-06-22T10:23:18;5.95;;;4.10;;
69594;SDS011;56800;52.142;5.364;2023-06-22T10:25:46;5.60;;;4.25;;
69594;SDS011;56800;52.142;5.364;2023-06-22T10:28:13;8.77;;;4.50;;
69594;SDS011;56800;52.142;5.364;2023-06-22T10:30:40;5.72;;;4.47;;
69594;SDS011;56800;52.142;5.364;2023-06-22T10:33:10;6.73;;;4.40;;
69594;SDS011;56800;52.142;5.364;2023-06-22T10:35:38;7.85;;;4.22;;
69594;SDS011;56800;52.142;5.364;2023-06-22T10:38:05;9.10;;;4.68;;
69594;SDS011;56800;52.142;5.364;2023-06-22T10:40:32;5.78;;;3.90;;
69594;SDS011;56800;52.142;5.364;2023-06-22T10:42:59;5.65;;;3.92;;
69594;SDS011;56800;52.142;5.364;2023-06-22T10:45:26;8.33;;;3.97;;
69594;SDS011;56800;52.142;5.364;2023-06-22T10:47:54;7.10;;;4.97;;
69594;SDS011;56800;52.142;5.364;2023-06-22T10:50:21;7.93;;;4.43;;
69594;SDS011;56800;52.142;5.364;2023-06-22T10:52:50;5.50;;;4.22;;
69594;SDS011;56800;52.142;5.364;2023-06-22T10:55:17;6.68;;;4.07;;
69594;SDS011;56800;52.142;5.364;2023-06-22T10:57:43;10.17;;;5.80;;
69594;SDS011;56800;52.142;5.364;2023-06-22T11:00:13;7.55;;;5.25;;
69594;SDS011;56800;52.142;5.364;2023-06-22T11:02:42;8.80;;;5.88;;
69594;SDS011;56800;52.142;5.364;2023-06-22T11:05:09;10.73;;;6.10;;
69594;SDS011;56800;52.142;5.364;2023-06-22T11:07:37;16.67;;;7.95;;
69594;SDS011;56800;52.142;5.364;2023-06-22T11:10:12;8.87;;;4.93;;
69594;SDS011;56800;52.142;5.364;2023-06-22T11:12:39;12.48;;;7.18;;
69594;SDS011;56800;52.142;5.364;2023-06-22T11:15:06;12.57;;;8.73;;
69594;SDS011;56800;52.142;5.364;2023-06-22T11:17:34;13.73;;;8.40;;
69594;SDS011;56800;52.142;5.364;2023-06-22T11:20:01;13.77;;;8.60;;
69594;SDS011;56800;52.142;5.364;2023-06-22T11:22:31;11.47;;;8.23;;
69594;SDS011;56800;52.142;5.364;2023-06-22T11:24:59;12.20;;;8.00;;
69594;SDS011;56800;52.142;5.364;2023-06-22T11:27:26;10.45;;;6.38;;
69594;SDS011;56800;52.142;5.364;2023-06-22T11:29:54;12.60;;;9.07;;
69594;SDS011;56800;52.142;5.364;2023-06-22T11:32:21;11.95;;;8.43;;
69594;SDS011;56800;52.142;5.364;2023-06-22T11:34:48;14.07;;;9.67;;
69594;SDS011;56800;52.142;5.364;2023-06-22T11:37:15;17.20;;;9.38;;
69594;SDS011;56800;52.142;5.364;2023-06-22T11:39:42;12.88;;;9.20;;
69594;SDS011;56800;52.142;5.364;2023-06-22T11:42:12;15.98;;;9.40;;
69594;SDS011;56800;52.142;5.364;2023-06-22T11:44:39;14.32;;;8.48;;
69594;SDS011;56800;52.142;5.364;2023-06-22T11:47:06;13.57;;;9.83;;
69594;SDS011;56800;52.142;5.364;2023-06-22T11:49:33;16.60;;;9.23;;
69594;SDS011;56800;52.142;5.364;2023-06-22T11:52:00;15.57;;;9.48;;
69594;SDS011;56800;52.142;5.364;2023-06-22T11:54:26;15.30;;;9.57;;
69594;SDS011;56800;52.142;5.364;2023-06-22T11:56:53;10.15;;;7.55;;
69594;SDS011;56800;52.142;5.364;2023-06-22T11:59:20;13.07;;;8.27;;
69594;SDS011;56800;52.142;5.364;2023-06-22T12:01:48;13.43;;;8.40;;
69594;SDS011;56800;52.142;5.364;2023-06-22T12:04:17;15.52;;;8.90;;
69594;SDS011;56800;52.142;5.364;2023-06-22T12:06:44;14.20;;;10.25;;
69594;SDS011;56800;52.142;5.364;2023-06-22T12:09:11;19.48;;;8.95;;
69594;SDS011;56800;52.142;5.364;2023-06-22T12:11:39;14.33;;;6.90;;
69594;SDS011;56800;52.142;5.364;2023-06-22T12:14:06;13.43;;;8.93;;
69594;SDS011;56800;52.142;5.364;2023-06-22T12:16:33;14.30;;;8.10;;
69594;SDS011;56800;52.142;5.364;2023-06-22T12:19:00;12.05;;;8.20;;
69594;SDS011;56800;52.142;5.364;2023-06-22T12:21:26;17.48;;;9.70;;
69594;SDS011;56800;52.142;5.364;2023-06-22T12:23:55;13.50;;;9.00;;
69594;SDS011;56800;52.142;5.364;2023-06-22T12:26:21;14.27;;;9.13;;
69594;SDS011;56800;52.142;5.364;2023-06-22T12:28:48;14.13;;;9.65;;
69594;SDS011;56800;52.142;5.364;2023-06-22T12:31:15;12.55;;;7.43;;
69594;SDS011;56800;52.142;5.364;2023-06-22T12:33:42;12.38;;;7.50;;
69594;SDS011;56800;52.142;5.364;2023-06-22T12:36:08;13.23;;;7.67;;
69594;SDS011;56800;52.142;5.364;2023-06-22T12:38:35;10.20;;;7.50;;
69594;SDS011;56800;52.142;5.364;2023-06-22T12:41:02;11.10;;;7.38;;
69594;SDS011;56800;52.142;5.364;2023-06-22T12:43:29;14.02;;;7.97;;
69594;SDS011;56800;52.142;5.364;2023-06-22T12:45:55;15.65;;;8.75;;
69594;SDS011;56800;52.142;5.364;2023-06-22T12:48:22;12.10;;;7.33;;
69594;SDS011;56800;52.142;5.364;2023-06-22T12:50:51;11.98;;;8.25;;
69594;SDS011;56800;52.142;5.364;2023-06-22T12:53:20;10.48;;;7.57;;
69594;SDS011;56800;52.142;5.364;2023-06-22T12:55:48;12.88;;;8.23;;
69594;SDS011;56800;52.142;5.364;2023-06-22T12:58:15;12.77;;;9.38;;
69594;SDS011;56800;52.142;5.364;2023-06-22T13:00:42;12.30;;;8.37;;
69594;SDS011;56800;52.142;5.364;2023-06-22T13:03:09;15.07;;;9.35;;
69594;SDS011;56800;52.142;5.364;2023-06-22T13:05:36;12.10;;;8.73;;
69594;SDS011;56800;52.142;5.364;2023-06-22T13:08:04;13.38;;;7.45;;
69594;SDS011;56800;52.142;5.364;2023-06-22T13:10:31;11.18;;;8.57;;
69594;SDS011;56800;52.142;5.364;2023-06-22T13:12:58;10.97;;;7.90;;
69594;SDS011;56800;52.142;5.364;2023-06-22T13:15:27;11.55;;;8.35;;
69594;SDS011;56800;52.142;5.364;2023-06-22T13:17:55;16.63;;;8.50;;
69594;SDS011;56800;52.142;5.364;2023-06-22T13:20:22;13.13;;;8.35;;
69594;SDS011;56800;52.142;5.364;2023-06-22T13:22:49;11.35;;;7.75;;
69594;SDS011;56800;52.142;5.364;2023-06-22T13:25:16;12.83;;;9.13;;
69594;SDS011;56800;52.142;5.364;2023-06-22T13:27:45;13.57;;;7.75;;
69594;SDS011;56800;52.142;5.364;2023-06-22T13:30:12;12.93;;;8.65;;
69594;SDS011;56800;52.142;5.364;2023-06-22T13:32:40;15.25;;;9.80;;
69594;SDS011;56800;52.142;5.364;2023-06-22T13:35:10;15.45;;;10.02;;
69594;SDS011;56800;52.142;5.364;2023-06-22T13:37:37;11.97;;;9.53;;
69594;SDS011;56800;52.142;5.364;2023-06-22T13:40:05;16.35;;;10.82;;
69594;SDS011;56800;52.142;5.364;2023-06-22T13:42:33;15.23;;;10.95;;
69594;SDS011;56800;52.142;5.364;2023-06-22T13:44:59;17.60;;;11.00;;
69594;SDS011;56800;52.142;5.364;2023-06-22T13:47:27;14.65;;;11.63;;
69594;SDS011;56800;52.142;5.364;2023-06-22T13:49:56;18.87;;;11.20;;
69594;SDS011;56800;52.142;5.364;2023-06-22T13:52:24;14.75;;;11.93;;
69594;SDS011;56800;52.142;5.364;2023-06-22T13:54:51;18.95;;;12.45;;
69594;SDS011;56800;52.142;5.364;2023-06-22T13:57:18;16.10;;;12.50;;
69594;SDS011;56800;52.142;5.364;2023-06-22T13:59:45;22.88;;;13.05;;
69594;SDS011;56800;52.142;5.364;2023-06-22T14:02:11;18.43;;;12.43;;
69594;SDS011;56800;52.142;5.364;2023-06-22T14:04:38;15.90;;;12.20;;
69594;SDS011;56800;52.142;5.364;2023-06-22T14:07:05;16.00;;;12.13;;
69594;SDS011;56800;52.142;5.364;2023-06-22T14:09:32;17.02;;;13.73;;
69594;SDS011;56800;52.142;5.364;2023-06-22T14:12:02;19.88;;;13.57;;
69594;SDS011;56800;52.142;5.364;2023-06-22T14:14:31;16.83;;;13.00;;
69594;SDS011;56800;52.142;5.364;2023-06-22T14:16:59;18.52;;;13.63;;
69594;SDS011;56800;52.142;5.364;2023-06-22T14:19:26;19.58;;;13.25;;
69594;SDS011;56800;52.142;5.364;2023-06-22T14:21:53;17.52;;;12.80;;
69594;SDS011;56800;52.142;5.364;2023-06-22T14:24:20;19.50;;;13.57;;
69594;SDS011;56800;52.142;5.364;2023-06-22T14:26:50;17.73;;;12.70;;
69594;SDS011;56800;52.142;5.364;2023-06-22T14:29:17;16.52;;;13.45;;
69594;SDS011;56800;52.142;5.364;2023-06-22T14:31:44;17.42;;;11.43;;
69594;SDS011;56800;52.142;5.364;2023-06-22T14:34:13;15.93;;;12.13;;
69594;SDS011;56800;52.142;5.364;2023-06-22T14:36:40;17.25;;;13.00;;
69594;SDS011;56800;52.142;5.364;2023-06-22T14:39:08;17.20;;;12.77;;
69594;SDS011;56800;52.142;5.364;2023-06-22T14:41:35;15.65;;;12.93;;